Hauptseite
METAR-TAF:

METAR-TAF

Flughäfen :

Flughafen Damaskus

Damaskus, Syrien

Breite: 33-25N, Länge: 036-31E, Höhe: 608 m

Beobachtung

Neuester Wetterbericht von vor 15 Minuten, um 23:00 UTC
Windstille
Temperatur -6°C
Luftfeuchtigkeit 135%
Luftdruck 1029 hPa
Sichtweite 10 km oder mehr
keine Wolken unter 1500 m und keine Kumulonimbus oder Gewitterwolken

METAR: OSDI 252300Z 00000KT CAVOK M06/M02 Q1029

Zeit: 01:15 (23:15 UTC)

Prognose

Neuester Wetterbericht von vor 12 Stunden und 15 Minuten, um 11:00 UTC
Gültige Prognose vom 25 um 12 UTC bis 26 um 18 UTC
Wind 10 kt aus Ost/Nordost
Sichtweite 10 km oder mehr
Leicht bewölkt in der Höhe von 3000 ft

TAF: OSDI 251100Z 2512/2618 06010KT 9999 FEW030

Wetterbeobachtungen und Prognosen von mehr als 4000 Flughäfen (METAR und TAF Bericht).

Die verfügbaren Stationen werden durch gelbe und rote Markierungen auf der Karte dargestellt.

Führen Sie die Maus auf sie, um den Namen der Station zu sehen.

Darauf klicken, um die Beobachtung von Wetterbeobachtungen und Prognosen zu sehen.

Um die Karte zu ändern : klicken Sie auf den grünen Tasten mit einem schwarzen Kreuz Zum Vergrößern, auf den grünen Button mit einem Gedankenstrich zu verkleinern, oder auf die grünen Pfeile für benachbarte Karten.


METAR-TAF: